sensor_id;sensor_type;location;lat;lon;timestamp;temperature;humidity
46732;DHT22;32477;51.474;5.696;2022-08-14T00:00:21;21.00;84.20
46732;DHT22;32477;51.474;5.696;2022-08-14T00:02:48;20.90;84.90
46732;DHT22;32477;51.474;5.696;2022-08-14T00:05:16;20.90;84.80
46732;DHT22;32477;51.474;5.696;2022-08-14T00:07:43;20.90;85.40
46732;DHT22;32477;51.474;5.696;2022-08-14T00:10:14;20.80;85.50
46732;DHT22;32477;51.474;5.696;2022-08-14T00:12:43;20.80;86.20
46732;DHT22;32477;51.474;5.696;2022-08-14T00:17:44;20.70;86.90
46732;DHT22;32477;51.474;5.696;2022-08-14T00:20:10;20.60;87.30
46732;DHT22;32477;51.474;5.696;2022-08-14T00:22:36;20.60;88.00
46732;DHT22;32477;51.474;5.696;2022-08-14T00:25:03;20.60;88.60
46732;DHT22;32477;51.474;5.696;2022-08-14T00:27:29;20.50;89.50
46732;DHT22;32477;51.474;5.696;2022-08-14T00:29:55;20.40;90.00
46732;DHT22;32477;51.474;5.696;2022-08-14T00:32:20;20.30;90.40
46732;DHT22;32477;51.474;5.696;2022-08-14T00:34:46;20.20;90.70
46732;DHT22;32477;51.474;5.696;2022-08-14T00:37:11;20.20;91.20
46732;DHT22;32477;51.474;5.696;2022-08-14T00:39:37;20.20;91.20
46732;DHT22;32477;51.474;5.696;2022-08-14T00:42:04;20.20;91.70
46732;DHT22;32477;51.474;5.696;2022-08-14T00:44:30;20.10;92.10
46732;DHT22;32477;51.474;5.696;2022-08-14T00:46:55;20.10;92.40
46732;DHT22;32477;51.474;5.696;2022-08-14T00:49:21;20.20;92.40
46732;DHT22;32477;51.474;5.696;2022-08-14T00:51:47;20.30;92.40
46732;DHT22;32477;51.474;5.696;2022-08-14T00:54:12;20.20;92.40
46732;DHT22;32477;51.474;5.696;2022-08-14T00:56:40;20.20;92.40
46732;DHT22;32477;51.474;5.696;2022-08-14T00:59:06;20.30;92.40
46732;DHT22;32477;51.474;5.696;2022-08-14T01:01:32;20.30;92.00
46732;DHT22;32477;51.474;5.696;2022-08-14T01:04:01;20.30;91.80
46732;DHT22;32477;51.474;5.696;2022-08-14T01:06:28;20.40;91.80
46732;DHT22;32477;51.474;5.696;2022-08-14T01:08:54;20.30;91.60
46732;DHT22;32477;51.474;5.696;2022-08-14T01:11:20;20.30;91.80
46732;DHT22;32477;51.474;5.696;2022-08-14T01:13:47;20.30;91.80
46732;DHT22;32477;51.474;5.696;2022-08-14T01:16:15;20.20;91.70
46732;DHT22;32477;51.474;5.696;2022-08-14T01:18:42;20.20;91.50
46732;DHT22;32477;51.474;5.696;2022-08-14T01:21:30;20.30;91.10
46732;DHT22;32477;51.474;5.696;2022-08-14T01:23:56;20.30;91.10
46732;DHT22;32477;51.474;5.696;2022-08-14T01:26:23;20.40;91.00
46732;DHT22;32477;51.474;5.696;2022-08-14T01:28:51;20.50;90.80
46732;DHT22;32477;51.474;5.696;2022-08-14T01:31:22;20.50;90.70
46732;DHT22;32477;51.474;5.696;2022-08-14T01:33:50;20.50;90.70
46732;DHT22;32477;51.474;5.696;2022-08-14T01:36:18;20.50;90.70
46732;DHT22;32477;51.474;5.696;2022-08-14T01:38:49;20.50;90.70
46732;DHT22;32477;51.474;5.696;2022-08-14T01:41:18;20.50;90.70
46732;DHT22;32477;51.474;5.696;2022-08-14T01:43:58;20.50;90.60
46732;DHT22;32477;51.474;5.696;2022-08-14T01:46:27;20.50;90.80
46732;DHT22;32477;51.474;5.696;2022-08-14T01:48:53;20.40;90.90
46732;DHT22;32477;51.474;5.696;2022-08-14T01:51:23;20.50;91.00
46732;DHT22;32477;51.474;5.696;2022-08-14T01:53:53;20.50;91.00
46732;DHT22;32477;51.474;5.696;2022-08-14T01:56:20;20.40;91.10
46732;DHT22;32477;51.474;5.696;2022-08-14T01:58:48;20.40;91.30
46732;DHT22;32477;51.474;5.696;2022-08-14T02:01:20;20.30;91.50
46732;DHT22;32477;51.474;5.696;2022-08-14T02:03:46;20.20;91.60
46732;DHT22;32477;51.474;5.696;2022-08-14T02:06:13;20.10;92.00
46732;DHT22;32477;51.474;5.696;2022-08-14T02:08:40;19.90;92.30
46732;DHT22;32477;51.474;5.696;2022-08-14T02:11:07;19.90;92.70
46732;DHT22;32477;51.474;5.696;2022-08-14T02:16:19;19.80;93.40
46732;DHT22;32477;51.474;5.696;2022-08-14T02:18:46;19.70;93.80
46732;DHT22;32477;51.474;5.696;2022-08-14T02:21:13;19.70;93.90
46732;DHT22;32477;51.474;5.696;2022-08-14T02:23:43;19.70;94.00
46732;DHT22;32477;51.474;5.696;2022-08-14T02:26:18;19.50;94.70
46732;DHT22;32477;51.474;5.696;2022-08-14T02:28:44;19.40;95.30
46732;DHT22;32477;51.474;5.696;2022-08-14T02:31:12;19.30;95.70
46732;DHT22;32477;51.474;5.696;2022-08-14T02:33:37;19.20;95.80
46732;DHT22;32477;51.474;5.696;2022-08-14T02:36:04;19.10;96.90
46732;DHT22;32477;51.474;5.696;2022-08-14T02:38:30;19.00;97.20
46732;DHT22;32477;51.474;5.696;2022-08-14T02:40:57;18.90;98.00
46732;DHT22;32477;51.474;5.696;2022-08-14T02:43:22;18.90;98.30
46732;DHT22;32477;51.474;5.696;2022-08-14T02:45:48;18.80;98.60
46732;DHT22;32477;51.474;5.696;2022-08-14T02:48:14;18.70;99.20
46732;DHT22;32477;51.474;5.696;2022-08-14T02:50:41;18.60;99.60
46732;DHT22;32477;51.474;5.696;2022-08-14T02:53:08;18.50;99.90
46732;DHT22;32477;51.474;5.696;2022-08-14T02:55:36;18.40;99.90
46732;DHT22;32477;51.474;5.696;2022-08-14T02:58:02;18.40;99.90
46732;DHT22;32477;51.474;5.696;2022-08-14T03:00:32;18.40;99.90
46732;DHT22;32477;51.474;5.696;2022-08-14T03:03:00;18.40;99.90
46732;DHT22;32477;51.474;5.696;2022-08-14T03:05:27;18.30;99.90
46732;DHT22;32477;51.474;5.696;2022-08-14T03:08:14;18.40;99.90
46732;DHT22;32477;51.474;5.696;2022-08-14T03:10:39;18.30;99.90
46732;DHT22;32477;51.474;5.696;2022-08-14T03:13:05;18.20;99.90
46732;DHT22;32477;51.474;5.696;2022-08-14T03:15:31;18.20;99.90
46732;DHT22;32477;51.474;5.696;2022-08-14T03:18:09;18.10;99.90
46732;DHT22;32477;51.474;5.696;2022-08-14T03:20:35;18.20;99.90
46732;DHT22;32477;51.474;5.696;2022-08-14T03:23:00;18.20;99.90
46732;DHT22;32477;51.474;5.696;2022-08-14T03:25:27;18.10;99.90
46732;DHT22;32477;51.474;5.696;2022-08-14T03:27:55;18.00;99.90
46732;DHT22;32477;51.474;5.696;2022-08-14T03:30:21;18.00;99.90
46732;DHT22;32477;51.474;5.696;2022-08-14T03:32:47;18.00;99.90
46732;DHT22;32477;51.474;5.696;2022-08-14T03:35:13;17.90;99.90
46732;DHT22;32477;51.474;5.696;2022-08-14T03:37:38;17.90;99.90
46732;DHT22;32477;51.474;5.696;2022-08-14T03:40:04;17.90;99.90
46732;DHT22;32477;51.474;5.696;2022-08-14T03:42:31;18.00;99.90
46732;DHT22;32477;51.474;5.696;2022-08-14T03:44:56;18.00;99.90
46732;DHT22;32477;51.474;5.696;2022-08-14T03:47:23;18.00;99.90
46732;DHT22;32477;51.474;5.696;2022-08-14T03:49:49;18.10;99.90
46732;DHT22;32477;51.474;5.696;2022-08-14T03:52:15;18.10;99.90
46732;DHT22;32477;51.474;5.696;2022-08-14T03:54:41;18.10;99.90
46732;DHT22;32477;51.474;5.696;2022-08-14T03:57:07;18.10;99.90
46732;DHT22;32477;51.474;5.696;2022-08-14T03:59:33;18.00;99.90
46732;DHT22;32477;51.474;5.696;2022-08-14T04:01:59;18.00;99.90
46732;DHT22;32477;51.474;5.696;2022-08-14T04:04:29;17.90;99.90
46732;DHT22;32477;51.474;5.696;2022-08-14T04:06:54;17.80;99.90
46732;DHT22;32477;51.474;5.696;2022-08-14T04:09:21;17.80;99.90
46732;DHT22;32477;51.474;5.696;2022-08-14T04:11:46;17.90;99.90
46732;DHT22;32477;51.474;5.696;2022-08-14T04:14:13;17.90;99.90
46732;DHT22;32477;51.474;5.696;2022-08-14T04:16:38;18.00;99.90
46732;DHT22;32477;51.474;5.696;2022-08-14T04:19:08;18.00;99.90
46732;DHT22;32477;51.474;5.696;2022-08-14T04:21:34;17.90;99.90
46732;DHT22;32477;51.474;5.696;2022-08-14T04:24:00;17.80;99.90
46732;DHT22;32477;51.474;5.696;2022-08-14T04:26:28;17.80;99.90
46732;DHT22;32477;51.474;5.696;2022-08-14T04:28:55;17.70;99.90
46732;DHT22;32477;51.474;5.696;2022-08-14T04:31:22;17.80;99.90
46732;DHT22;32477;51.474;5.696;2022-08-14T04:33:47;17.80;99.90
46732;DHT22;32477;51.474;5.696;2022-08-14T04:36:13;17.80;99.90
46732;DHT22;32477;51.474;5.696;2022-08-14T04:38:39;17.80;99.90
46732;DHT22;32477;51.474;5.696;2022-08-14T04:41:23;17.80;99.90
46732;DHT22;32477;51.474;5.696;2022-08-14T04:44:19;17.80;99.90
46732;DHT22;32477;51.474;5.696;2022-08-14T04:46:45;17.80;99.90
46732;DHT22;32477;51.474;5.696;2022-08-14T04:49:31;17.80;99.90
46732;DHT22;32477;51.474;5.696;2022-08-14T04:51:57;17.80;99.90
46732;DHT22;32477;51.474;5.696;2022-08-14T04:54:25;17.90;99.90
46732;DHT22;32477;51.474;5.696;2022-08-14T04:56:52;17.90;99.90
46732;DHT22;32477;51.474;5.696;2022-08-14T04:59:17;18.00;99.90
46732;DHT22;32477;51.474;5.696;2022-08-14T05:01:43;18.00;99.90
46732;DHT22;32477;51.474;5.696;2022-08-14T05:04:09;18.00;99.90
46732;DHT22;32477;51.474;5.696;2022-08-14T05:06:37;18.10;99.90
46732;DHT22;32477;51.474;5.696;2022-08-14T05:09:03;18.10;99.90
46732;DHT22;32477;51.474;5.696;2022-08-14T05:11:29;18.10;99.90
46732;DHT22;32477;51.474;5.696;2022-08-14T05:13:58;18.20;99.90
46732;DHT22;32477;51.474;5.696;2022-08-14T05:16:24;18.30;99.90
46732;DHT22;32477;51.474;5.696;2022-08-14T05:18:53;18.30;99.90
46732;DHT22;32477;51.474;5.696;2022-08-14T05:21:20;18.50;99.90
46732;DHT22;32477;51.474;5.696;2022-08-14T05:23:46;18.60;99.90
46732;DHT22;32477;51.474;5.696;2022-08-14T05:26:11;18.70;99.90
46732;DHT22;32477;51.474;5.696;2022-08-14T05:28:40;18.90;99.90
46732;DHT22;32477;51.474;5.696;2022-08-14T05:31:11;19.00;99.90
46732;DHT22;32477;51.474;5.696;2022-08-14T05:33:37;19.20;99.90
46732;DHT22;32477;51.474;5.696;2022-08-14T05:36:05;19.50;99.90
46732;DHT22;32477;51.474;5.696;2022-08-14T05:38:34;19.90;99.90
46732;DHT22;32477;51.474;5.696;2022-08-14T05:41:04;20.40;99.90
46732;DHT22;32477;51.474;5.696;2022-08-14T05:43:30;20.80;99.90
46732;DHT22;32477;51.474;5.696;2022-08-14T05:45:57;21.30;99.90
46732;DHT22;32477;51.474;5.696;2022-08-14T05:48:23;21.60;99.90
46732;DHT22;32477;51.474;5.696;2022-08-14T05:50:51;22.00;99.90
46732;DHT22;32477;51.474;5.696;2022-08-14T05:53:26;22.30;99.90
46732;DHT22;32477;51.474;5.696;2022-08-14T05:55:53;22.60;99.90
46732;DHT22;32477;51.474;5.696;2022-08-14T05:58:23;22.90;98.80
46732;DHT22;32477;51.474;5.696;2022-08-14T06:00:49;23.30;97.80
46732;DHT22;32477;51.474;5.696;2022-08-14T06:03:17;23.40;96.60
46732;DHT22;32477;51.474;5.696;2022-08-14T06:05:45;23.70;95.50
46732;DHT22;32477;51.474;5.696;2022-08-14T06:08:26;23.80;94.80
46732;DHT22;32477;51.474;5.696;2022-08-14T06:10:55;24.00;94.50
46732;DHT22;32477;51.474;5.696;2022-08-14T06:13:22;24.10;94.00
46732;DHT22;32477;51.474;5.696;2022-08-14T06:15:48;24.40;92.90
46732;DHT22;32477;51.474;5.696;2022-08-14T06:18:15;24.50;92.50
46732;DHT22;32477;51.474;5.696;2022-08-14T06:20:42;24.60;92.40
46732;DHT22;32477;51.474;5.696;2022-08-14T06:23:08;24.80;91.70
46732;DHT22;32477;51.474;5.696;2022-08-14T06:25:33;24.90;91.20
46732;DHT22;32477;51.474;5.696;2022-08-14T06:27:59;25.10;91.00
46732;DHT22;32477;51.474;5.696;2022-08-14T06:30:27;25.10;90.70
46732;DHT22;32477;51.474;5.696;2022-08-14T06:32:54;25.40;90.40
46732;DHT22;32477;51.474;5.696;2022-08-14T06:35:20;25.90;89.90
46732;DHT22;32477;51.474;5.696;2022-08-14T06:37:58;25.90;88.50
46732;DHT22;32477;51.474;5.696;2022-08-14T06:40:29;25.80;88.00
46732;DHT22;32477;51.474;5.696;2022-08-14T06:43:06;26.00;87.70
46732;DHT22;32477;51.474;5.696;2022-08-14T06:45:34;26.10;87.40
46732;DHT22;32477;51.474;5.696;2022-08-14T06:48:00;26.40;86.80
46732;DHT22;32477;51.474;5.696;2022-08-14T06:50:27;26.70;86.00
46732;DHT22;32477;51.474;5.696;2022-08-14T06:52:53;27.00;85.00
46732;DHT22;32477;51.474;5.696;2022-08-14T06:55:19;26.80;84.80
46732;DHT22;32477;51.474;5.696;2022-08-14T06:57:47;26.90;85.10
46732;DHT22;32477;51.474;5.696;2022-08-14T07:00:20;27.20;84.40
46732;DHT22;32477;51.474;5.696;2022-08-14T07:02:46;27.70;83.10
46732;DHT22;32477;51.474;5.696;2022-08-14T07:05:31;28.00;81.70
46732;DHT22;32477;51.474;5.696;2022-08-14T07:08:29;27.60;81.40
46732;DHT22;32477;51.474;5.696;2022-08-14T07:10:57;28.00;81.30
46732;DHT22;32477;51.474;5.696;2022-08-14T07:13:24;28.20;81.50
46732;DHT22;32477;51.474;5.696;2022-08-14T07:15:52;28.30;79.70
46732;DHT22;32477;51.474;5.696;2022-08-14T07:18:26;28.50;80.60
46732;DHT22;32477;51.474;5.696;2022-08-14T07:20:52;29.00;79.90
46732;DHT22;32477;51.474;5.696;2022-08-14T07:23:19;29.50;78.40
46732;DHT22;32477;51.474;5.696;2022-08-14T07:25:46;29.80;77.10
46732;DHT22;32477;51.474;5.696;2022-08-14T07:28:16;30.30;76.80
46732;DHT22;32477;51.474;5.696;2022-08-14T07:30:43;30.40;76.30
46732;DHT22;32477;51.474;5.696;2022-08-14T07:33:10;30.40;75.00
46732;DHT22;32477;51.474;5.696;2022-08-14T07:35:37;30.20;75.50
46732;DHT22;32477;51.474;5.696;2022-08-14T07:38:04;29.90;75.90
46732;DHT22;32477;51.474;5.696;2022-08-14T07:40:30;30.20;75.70
46732;DHT22;32477;51.474;5.696;2022-08-14T07:42:56;30.90;75.20
46732;DHT22;32477;51.474;5.696;2022-08-14T07:45:21;31.50;73.90
46732;DHT22;32477;51.474;5.696;2022-08-14T07:47:47;31.60;73.00
46732;DHT22;32477;51.474;5.696;2022-08-14T07:50:15;31.80;72.40
46732;DHT22;32477;51.474;5.696;2022-08-14T07:52:45;32.10;71.40
46732;DHT22;32477;51.474;5.696;2022-08-14T07:55:12;31.50;71.40
46732;DHT22;32477;51.474;5.696;2022-08-14T07:57:42;31.50;71.80
46732;DHT22;32477;51.474;5.696;2022-08-14T08:00:14;31.80;71.90
46732;DHT22;32477;51.474;5.696;2022-08-14T08:02:42;31.90;71.00
46732;DHT22;32477;51.474;5.696;2022-08-14T08:05:09;32.20;70.60
46732;DHT22;32477;51.474;5.696;2022-08-14T08:07:37;32.60;69.90
46732;DHT22;32477;51.474;5.696;2022-08-14T08:10:06;32.70;69.70
46732;DHT22;32477;51.474;5.696;2022-08-14T08:12:54;33.30;69.10
46732;DHT22;32477;51.474;5.696;2022-08-14T08:15:22;33.60;68.30
46732;DHT22;32477;51.474;5.696;2022-08-14T08:17:48;34.00;67.80
46732;DHT22;32477;51.474;5.696;2022-08-14T08:20:18;33.80;67.60
46732;DHT22;32477;51.474;5.696;2022-08-14T08:22:47;33.40;67.50
46732;DHT22;32477;51.474;5.696;2022-08-14T08:25:13;33.40;68.20
46732;DHT22;32477;51.474;5.696;2022-08-14T08:27:39;33.70;67.50
46732;DHT22;32477;51.474;5.696;2022-08-14T08:30:09;34.30;66.80
46732;DHT22;32477;51.474;5.696;2022-08-14T08:32:39;34.60;66.10
46732;DHT22;32477;51.474;5.696;2022-08-14T08:35:09;34.80;65.50
46732;DHT22;32477;51.474;5.696;2022-08-14T08:37:35;35.10;65.60
46732;DHT22;32477;51.474;5.696;2022-08-14T08:40:01;35.00;65.50
46732;DHT22;32477;51.474;5.696;2022-08-14T08:42:26;35.00;65.50
46732;DHT22;32477;51.474;5.696;2022-08-14T08:44:55;35.20;65.40
46732;DHT22;32477;51.474;5.696;2022-08-14T08:47:21;34.00;65.90
46732;DHT22;32477;51.474;5.696;2022-08-14T08:49:46;33.30;66.70
46732;DHT22;32477;51.474;5.696;2022-08-14T08:52:12;33.50;66.80
46732;DHT22;32477;51.474;5.696;2022-08-14T08:54:37;34.10;66.20
46732;DHT22;32477;51.474;5.696;2022-08-14T08:57:13;34.10;65.70
46732;DHT22;32477;51.474;5.696;2022-08-14T08:59:38;34.80;65.20
46732;DHT22;32477;51.474;5.696;2022-08-14T09:02:08;35.00;64.40
46732;DHT22;32477;51.474;5.696;2022-08-14T09:04:42;35.00;64.40
46732;DHT22;32477;51.474;5.696;2022-08-14T09:07:09;35.30;63.40
46732;DHT22;32477;51.474;5.696;2022-08-14T09:09:34;35.70;63.20
46732;DHT22;32477;51.474;5.696;2022-08-14T09:12:16;35.40;63.00
46732;DHT22;32477;51.474;5.696;2022-08-14T09:14:41;35.20;63.20
46732;DHT22;32477;51.474;5.696;2022-08-14T09:17:08;35.20;63.20
46732;DHT22;32477;51.474;5.696;2022-08-14T09:19:35;35.30;63.20
46732;DHT22;32477;51.474;5.696;2022-08-14T09:22:02;35.70;63.10
46732;DHT22;32477;51.474;5.696;2022-08-14T09:24:28;35.80;62.40
46732;DHT22;32477;51.474;5.696;2022-08-14T09:26:54;36.10;62.30
46732;DHT22;32477;51.474;5.696;2022-08-14T09:29:20;35.90;62.60
46732;DHT22;32477;51.474;5.696;2022-08-14T09:31:48;36.40;61.90
46732;DHT22;32477;51.474;5.696;2022-08-14T09:45:22;35.80;62.40
46732;DHT22;32477;51.474;5.696;2022-08-14T09:47:55;36.10;61.50
46732;DHT22;32477;51.474;5.696;2022-08-14T09:50:26;36.40;61.70
46732;DHT22;32477;51.474;5.696;2022-08-14T09:53:05;36.50;60.30
46732;DHT22;32477;51.474;5.696;2022-08-14T09:55:33;36.10;59.80
46732;DHT22;32477;51.474;5.696;2022-08-14T09:58:19;35.60;60.00
46732;DHT22;32477;51.474;5.696;2022-08-14T10:00:50;36.50;59.10
46732;DHT22;32477;51.474;5.696;2022-08-14T10:05:50;36.60;59.20
46732;DHT22;32477;51.474;5.696;2022-08-14T10:08:18;36.50;59.00
46732;DHT22;32477;51.474;5.696;2022-08-14T10:10:44;36.70;59.40
46732;DHT22;32477;51.474;5.696;2022-08-14T10:13:24;37.10;59.60
46732;DHT22;32477;51.474;5.696;2022-08-14T10:15:50;37.10;60.30
46732;DHT22;32477;51.474;5.696;2022-08-14T10:18:26;37.10;60.00
46732;DHT22;32477;51.474;5.696;2022-08-14T10:20:57;37.60;60.60
46732;DHT22;32477;51.474;5.696;2022-08-14T10:23:26;37.70;60.10
46732;DHT22;32477;51.474;5.696;2022-08-14T10:26:04;37.50;59.80
46732;DHT22;32477;51.474;5.696;2022-08-14T10:28:39;37.60;60.00
46732;DHT22;32477;51.474;5.696;2022-08-14T10:31:27;36.60;61.00
46732;DHT22;32477;51.474;5.696;2022-08-14T10:34:02;36.40;60.70
46732;DHT22;32477;51.474;5.696;2022-08-14T10:36:30;36.40;61.10
46732;DHT22;32477;51.474;5.696;2022-08-14T10:38:59;36.40;60.90
46732;DHT22;32477;51.474;5.696;2022-08-14T10:41:34;36.50;60.00
46732;DHT22;32477;51.474;5.696;2022-08-14T10:44:07;37.00;59.80
46732;DHT22;32477;51.474;5.696;2022-08-14T10:49:24;37.20;59.00
46732;DHT22;32477;51.474;5.696;2022-08-14T10:51:59;37.00;58.80
46732;DHT22;32477;51.474;5.696;2022-08-14T10:54:31;36.60;59.10
46732;DHT22;32477;51.474;5.696;2022-08-14T10:57:19;36.20;59.40
46732;DHT22;32477;51.474;5.696;2022-08-14T10:59:52;36.00;59.40
46732;DHT22;32477;51.474;5.696;2022-08-14T11:02:27;36.50;59.20
46732;DHT22;32477;51.474;5.696;2022-08-14T11:05:11;36.70;58.50
46732;DHT22;32477;51.474;5.696;2022-08-14T11:07:53;37.20;58.50
46732;DHT22;32477;51.474;5.696;2022-08-14T11:10:22;37.20;58.70
46732;DHT22;32477;51.474;5.696;2022-08-14T11:12:55;37.40;57.20
46732;DHT22;32477;51.474;5.696;2022-08-14T11:15:25;37.70;57.00
46732;DHT22;32477;51.474;5.696;2022-08-14T11:17:52;38.30;57.00
46732;DHT22;32477;51.474;5.696;2022-08-14T11:20:23;38.50;56.60
46732;DHT22;32477;51.474;5.696;2022-08-14T11:22:52;38.30;56.60
46732;DHT22;32477;51.474;5.696;2022-08-14T11:25:20;38.60;56.60
46732;DHT22;32477;51.474;5.696;2022-08-14T11:27:49;39.00;55.70
46732;DHT22;32477;51.474;5.696;2022-08-14T11:30:17;39.20;55.80
46732;DHT22;32477;51.474;5.696;2022-08-14T11:32:46;39.00;55.20
46732;DHT22;32477;51.474;5.696;2022-08-14T11:35:20;38.20;55.20
46732;DHT22;32477;51.474;5.696;2022-08-14T11:37:52;36.70;56.40
46732;DHT22;32477;51.474;5.696;2022-08-14T11:40:20;35.60;56.50
46732;DHT22;32477;51.474;5.696;2022-08-14T11:42:50;35.60;55.90
46732;DHT22;32477;51.474;5.696;2022-08-14T11:45:22;37.00;54.10
46732;DHT22;32477;51.474;5.696;2022-08-14T11:47:48;37.50;53.90
46732;DHT22;32477;51.474;5.696;2022-08-14T11:50:20;38.00;53.50
46732;DHT22;32477;51.474;5.696;2022-08-14T11:52:49;38.80;53.60
46732;DHT22;32477;51.474;5.696;2022-08-14T11:55:15;39.20;54.30
46732;DHT22;32477;51.474;5.696;2022-08-14T11:57:42;39.20;53.30
46732;DHT22;32477;51.474;5.696;2022-08-14T12:00:11;38.30;53.70
46732;DHT22;32477;51.474;5.696;2022-08-14T12:02:48;36.60;53.90
46732;DHT22;32477;51.474;5.696;2022-08-14T12:05:15;35.00;55.90
46732;DHT22;32477;51.474;5.696;2022-08-14T12:07:48;35.20;56.10
46732;DHT22;32477;51.474;5.696;2022-08-14T12:10:17;35.50;56.00
46732;DHT22;32477;51.474;5.696;2022-08-14T12:12:43;35.50;55.00
46732;DHT22;32477;51.474;5.696;2022-08-14T12:15:09;34.60;56.00
46732;DHT22;32477;51.474;5.696;2022-08-14T12:17:45;35.30;56.30
46732;DHT22;32477;51.474;5.696;2022-08-14T12:20:16;36.50;55.40
46732;DHT22;32477;51.474;5.696;2022-08-14T12:22:43;37.20;55.00
46732;DHT22;32477;51.474;5.696;2022-08-14T12:25:18;38.00;53.90
46732;DHT22;32477;51.474;5.696;2022-08-14T12:27:48;38.10;53.00
46732;DHT22;32477;51.474;5.696;2022-08-14T12:32:52;38.10;51.90
46732;DHT22;32477;51.474;5.696;2022-08-14T12:35:19;37.10;51.50
46732;DHT22;32477;51.474;5.696;2022-08-14T12:37:49;37.30;51.60
46732;DHT22;32477;51.474;5.696;2022-08-14T12:40:16;37.80;52.10
46732;DHT22;32477;51.474;5.696;2022-08-14T12:42:43;38.40;51.20
46732;DHT22;32477;51.474;5.696;2022-08-14T12:45:10;38.50;51.40
46732;DHT22;32477;51.474;5.696;2022-08-14T12:47:38;38.70;51.10
46732;DHT22;32477;51.474;5.696;2022-08-14T12:50:05;38.30;51.00
46732;DHT22;32477;51.474;5.696;2022-08-14T12:55:00;38.10;51.70
46732;DHT22;32477;51.474;5.696;2022-08-14T12:57:55;39.00;51.80
46732;DHT22;32477;51.474;5.696;2022-08-14T13:00:23;38.10;52.50
46732;DHT22;32477;51.474;5.696;2022-08-14T13:02:51;36.60;53.80
46732;DHT22;32477;51.474;5.696;2022-08-14T13:05:22;36.00;54.60
46732;DHT22;32477;51.474;5.696;2022-08-14T13:07:48;35.90;54.40
46732;DHT22;32477;51.474;5.696;2022-08-14T13:10:20;36.10;54.10
46732;DHT22;32477;51.474;5.696;2022-08-14T13:12:46;36.60;53.40
46732;DHT22;32477;51.474;5.696;2022-08-14T13:15:14;37.50;53.30
46732;DHT22;32477;51.474;5.696;2022-08-14T13:17:43;38.00;52.40
46732;DHT22;32477;51.474;5.696;2022-08-14T13:20:11;37.90;51.80
46732;DHT22;32477;51.474;5.696;2022-08-14T13:22:39;37.50;52.20
46732;DHT22;32477;51.474;5.696;2022-08-14T13:25:09;37.70;52.00
46732;DHT22;32477;51.474;5.696;2022-08-14T13:27:35;36.40;52.70
46732;DHT22;32477;51.474;5.696;2022-08-14T13:30:06;35.40;53.70
46732;DHT22;32477;51.474;5.696;2022-08-14T13:32:32;34.60;54.50
46732;DHT22;32477;51.474;5.696;2022-08-14T13:35:00;35.00;54.10
46732;DHT22;32477;51.474;5.696;2022-08-14T13:37:25;35.50;53.70
46732;DHT22;32477;51.474;5.696;2022-08-14T13:39:52;36.20;53.40
46732;DHT22;32477;51.474;5.696;2022-08-14T13:42:19;36.10;52.80
46732;DHT22;32477;51.474;5.696;2022-08-14T13:44:47;35.70;53.60
46732;DHT22;32477;51.474;5.696;2022-08-14T13:47:14;35.60;54.20
46732;DHT22;32477;51.474;5.696;2022-08-14T13:49:40;36.00;53.00
46732;DHT22;32477;51.474;5.696;2022-08-14T13:52:08;36.20;52.60
46732;DHT22;32477;51.474;5.696;2022-08-14T13:54:36;36.60;52.30
46732;DHT22;32477;51.474;5.696;2022-08-14T13:57:04;37.00;52.10
46732;DHT22;32477;51.474;5.696;2022-08-14T13:59:33;37.70;51.40
46732;DHT22;32477;51.474;5.696;2022-08-14T14:02:04;38.00;50.90
46732;DHT22;32477;51.474;5.696;2022-08-14T14:04:30;38.00;50.70
46732;DHT22;32477;51.474;5.696;2022-08-14T14:07:00;37.20;50.80
46732;DHT22;32477;51.474;5.696;2022-08-14T14:09:29;36.10;51.30
46732;DHT22;32477;51.474;5.696;2022-08-14T14:11:58;35.80;52.60
46732;DHT22;32477;51.474;5.696;2022-08-14T14:14:24;35.60;52.20
46732;DHT22;32477;51.474;5.696;2022-08-14T14:16:50;35.70;52.20
46732;DHT22;32477;51.474;5.696;2022-08-14T14:19:18;35.30;52.50
46732;DHT22;32477;51.474;5.696;2022-08-14T14:21:47;35.50;52.90
46732;DHT22;32477;51.474;5.696;2022-08-14T14:24:13;35.30;52.80
46732;DHT22;32477;51.474;5.696;2022-08-14T14:26:46;35.40;52.80
46732;DHT22;32477;51.474;5.696;2022-08-14T14:29:12;35.10;53.50
46732;DHT22;32477;51.474;5.696;2022-08-14T14:31:39;35.00;53.30
46732;DHT22;32477;51.474;5.696;2022-08-14T14:34:06;34.80;53.60
46732;DHT22;32477;51.474;5.696;2022-08-14T14:36:35;34.60;53.20
46732;DHT22;32477;51.474;5.696;2022-08-14T14:39:04;34.60;53.20
46732;DHT22;32477;51.474;5.696;2022-08-14T14:41:35;33.90;53.10
46732;DHT22;32477;51.474;5.696;2022-08-14T14:44:03;33.70;53.60
46732;DHT22;32477;51.474;5.696;2022-08-14T14:46:35;33.70;54.20
46732;DHT22;32477;51.474;5.696;2022-08-14T14:49:04;33.50;53.60
46732;DHT22;32477;51.474;5.696;2022-08-14T14:51:30;33.30;53.90
46732;DHT22;32477;51.474;5.696;2022-08-14T14:53:55;33.30;54.20
46732;DHT22;32477;51.474;5.696;2022-08-14T14:56:27;33.40;53.90
46732;DHT22;32477;51.474;5.696;2022-08-14T14:58:53;33.40;53.90
46732;DHT22;32477;51.474;5.696;2022-08-14T15:01:19;33.60;54.00
46732;DHT22;32477;51.474;5.696;2022-08-14T15:03:49;33.60;54.10
46732;DHT22;32477;51.474;5.696;2022-08-14T15:06:19;33.50;54.00
46732;DHT22;32477;51.474;5.696;2022-08-14T15:08:45;33.50;53.80
46732;DHT22;32477;51.474;5.696;2022-08-14T15:11:11;33.40;53.90
46732;DHT22;32477;51.474;5.696;2022-08-14T15:13:37;33.50;54.30
46732;DHT22;32477;51.474;5.696;2022-08-14T15:16:03;33.40;53.60
46732;DHT22;32477;51.474;5.696;2022-08-14T15:18:30;33.10;53.60
46732;DHT22;32477;51.474;5.696;2022-08-14T15:20:57;33.30;54.10
46732;DHT22;32477;51.474;5.696;2022-08-14T15:23:25;33.30;53.70
46732;DHT22;32477;51.474;5.696;2022-08-14T15:25:51;33.40;53.80
46732;DHT22;32477;51.474;5.696;2022-08-14T15:28:17;33.20;53.70
46732;DHT22;32477;51.474;5.696;2022-08-14T15:30:45;33.20;54.00
46732;DHT22;32477;51.474;5.696;2022-08-14T15:33:11;33.30;54.30
46732;DHT22;32477;51.474;5.696;2022-08-14T15:35:38;33.10;54.10
46732;DHT22;32477;51.474;5.696;2022-08-14T15:38:03;33.10;54.20
46732;DHT22;32477;51.474;5.696;2022-08-14T15:40:40;33.10;54.40
46732;DHT22;32477;51.474;5.696;2022-08-14T15:43:10;33.00;54.20
46732;DHT22;32477;51.474;5.696;2022-08-14T15:45:36;33.00;54.20
46732;DHT22;32477;51.474;5.696;2022-08-14T15:48:05;32.90;54.30
46732;DHT22;32477;51.474;5.696;2022-08-14T15:50:32;33.00;54.30
46732;DHT22;32477;51.474;5.696;2022-08-14T15:52:58;33.10;54.40
46732;DHT22;32477;51.474;5.696;2022-08-14T15:55:23;33.00;54.10
46732;DHT22;32477;51.474;5.696;2022-08-14T15:57:49;32.90;54.40
46732;DHT22;32477;51.474;5.696;2022-08-14T16:00:16;32.70;54.00
46732;DHT22;32477;51.474;5.696;2022-08-14T16:03:01;32.70;54.10
46732;DHT22;32477;51.474;5.696;2022-08-14T16:05:26;32.70;54.00